sensor_id;sensor_type;location;lat;lon;timestamp;P1;durP1;ratioP1;P2;durP2;ratioP2
9280;SDS011;4679;47.966;7.958;2023-03-21T06:47:47;1.47;;;1.27;;
9280;SDS011;4679;47.966;7.958;2023-03-21T06:49:49;1.30;;;1.20;;
9280;SDS011;4679;47.966;7.958;2023-03-21T06:51:50;1.80;;;0.93;;
9280;SDS011;4679;47.966;7.958;2023-03-21T06:53:52;1.50;;;0.73;;
9280;SDS011;4679;47.966;7.958;2023-03-21T06:55:53;0.70;;;0.70;;
9280;SDS011;4679;47.966;7.958;2023-03-21T06:57:56;2.50;;;1.03;;
9280;SDS011;4679;47.966;7.958;2023-03-21T06:59:57;0.83;;;0.83;;
9280;SDS011;4679;47.966;7.958;2023-03-21T07:01:59;1.17;;;1.07;;
9280;SDS011;4679;47.966;7.958;2023-03-21T07:04:03;1.67;;;1.10;;
9280;SDS011;4679;47.966;7.958;2023-03-21T07:06:06;1.10;;;1.00;;
9280;SDS011;4679;47.966;7.958;2023-03-21T07:08:10;1.40;;;1.20;;
9280;SDS011;4679;47.966;7.958;2023-03-21T07:10:13;3.73;;;1.10;;
9280;SDS011;4679;47.966;7.958;2023-03-21T07:12:15;4.27;;;1.80;;
9280;SDS011;4679;47.966;7.958;2023-03-21T07:14:16;1.57;;;1.30;;
9280;SDS011;4679;47.966;7.958;2023-03-21T07:16:18;0.97;;;0.97;;
9280;SDS011;4679;47.966;7.958;2023-03-21T07:18:21;0.87;;;0.80;;
9280;SDS011;4679;47.966;7.958;2023-03-21T07:20:24;1.50;;;0.90;;
9280;SDS011;4679;47.966;7.958;2023-03-21T07:22:26;1.17;;;0.90;;
9280;SDS011;4679;47.966;7.958;2023-03-21T07:24:28;1.53;;;0.80;;
9280;SDS011;4679;47.966;7.958;2023-03-21T07:26:29;0.63;;;0.60;;
9280;SDS011;4679;47.966;7.958;2023-03-21T07:28:31;0.67;;;0.67;;
9280;SDS011;4679;47.966;7.958;2023-03-21T07:30:33;2.30;;;0.70;;
9280;SDS011;4679;47.966;7.958;2023-03-21T07:32:35;1.37;;;0.50;;
9280;SDS011;4679;47.966;7.958;2023-03-21T07:34:38;0.53;;;0.50;;
9280;SDS011;4679;47.966;7.958;2023-03-21T07:36:41;0.60;;;0.60;;
9280;SDS011;4679;47.966;7.958;2023-03-21T07:38:43;0.60;;;0.50;;
9280;SDS011;4679;47.966;7.958;2023-03-21T07:40:45;0.70;;;0.50;;
9280;SDS011;4679;47.966;7.958;2023-03-21T07:42:48;1.70;;;0.70;;
9280;SDS011;4679;47.966;7.958;2023-03-21T07:44:50;2.00;;;0.80;;
9280;SDS011;4679;47.966;7.958;2023-03-21T07:46:54;1.30;;;0.53;;
9280;SDS011;4679;47.966;7.958;2023-03-21T07:48:56;2.00;;;0.73;;
9280;SDS011;4679;47.966;7.958;2023-03-21T07:50:58;1.27;;;0.70;;
9280;SDS011;4679;47.966;7.958;2023-03-21T07:53:02;0.90;;;0.80;;
9280;SDS011;4679;47.966;7.958;2023-03-21T07:55:04;0.63;;;0.63;;
9280;SDS011;4679;47.966;7.958;2023-03-21T07:57:06;0.83;;;0.60;;
9280;SDS011;4679;47.966;7.958;2023-03-21T07:59:08;1.77;;;0.60;;
9280;SDS011;4679;47.966;7.958;2023-03-21T08:01:10;1.00;;;0.70;;
9280;SDS011;4679;47.966;7.958;2023-03-21T08:03:11;5.47;;;0.80;;
9280;SDS011;4679;47.966;7.958;2023-03-21T08:05:13;0.50;;;0.50;;
9280;SDS011;4679;47.966;7.958;2023-03-21T08:07:15;1.00;;;0.50;;
9280;SDS011;4679;47.966;7.958;2023-03-21T08:09:18;2.03;;;0.73;;
9280;SDS011;4679;47.966;7.958;2023-03-21T08:11:20;0.50;;;0.50;;
9280;SDS011;4679;47.966;7.958;2023-03-21T08:13:22;0.90;;;0.50;;
9280;SDS011;4679;47.966;7.958;2023-03-21T08:15:25;1.23;;;0.80;;
9280;SDS011;4679;47.966;7.958;2023-03-21T08:17:26;0.80;;;0.50;;
9280;SDS011;4679;47.966;7.958;2023-03-21T08:19:28;2.07;;;0.40;;
9280;SDS011;4679;47.966;7.958;2023-03-21T08:21:30;1.33;;;0.60;;
9280;SDS011;4679;47.966;7.958;2023-03-21T08:23:31;1.90;;;0.50;;
9280;SDS011;4679;47.966;7.958;2023-03-21T08:25:35;6.97;;;1.00;;
9280;SDS011;4679;47.966;7.958;2023-03-21T08:27:37;0.57;;;0.57;;
9280;SDS011;4679;47.966;7.958;2023-03-21T08:29:38;2.70;;;0.70;;
9280;SDS011;4679;47.966;7.958;2023-03-21T08:31:41;1.23;;;0.80;;
9280;SDS011;4679;47.966;7.958;2023-03-21T08:33:43;1.83;;;0.80;;
9280;SDS011;4679;47.966;7.958;2023-03-21T08:35:44;6.53;;;0.97;;
9280;SDS011;4679;47.966;7.958;2023-03-21T08:37:46;2.20;;;0.60;;
9280;SDS011;4679;47.966;7.958;2023-03-21T08:39:48;0.90;;;0.80;;
9280;SDS011;4679;47.966;7.958;2023-03-21T08:41:51;0.63;;;0.63;;
9280;SDS011;4679;47.966;7.958;2023-03-21T08:43:53;1.40;;;0.90;;
9280;SDS011;4679;47.966;7.958;2023-03-21T08:45:55;0.80;;;0.60;;
9280;SDS011;4679;47.966;7.958;2023-03-21T08:47:57;1.00;;;0.67;;
9280;SDS011;4679;47.966;7.958;2023-03-21T08:49:58;1.20;;;0.67;;
9280;SDS011;4679;47.966;7.958;2023-03-21T08:52:00;0.50;;;0.50;;
9280;SDS011;4679;47.966;7.958;2023-03-21T08:54:02;0.60;;;0.40;;
9280;SDS011;4679;47.966;7.958;2023-03-21T08:56:04;1.00;;;0.70;;
9280;SDS011;4679;47.966;7.958;2023-03-21T08:58:07;0.47;;;0.47;;
9280;SDS011;4679;47.966;7.958;2023-03-21T09:00:10;1.40;;;0.50;;
9280;SDS011;4679;47.966;7.958;2023-03-21T09:02:13;6.40;;;1.00;;
9280;SDS011;4679;47.966;7.958;2023-03-21T09:04:15;2.70;;;0.63;;
9280;SDS011;4679;47.966;7.958;2023-03-21T09:08:13;2.40;;;0.40;;
9280;SDS011;4679;47.966;7.958;2023-03-21T09:10:15;4.53;;;0.50;;
9280;SDS011;4679;47.966;7.958;2023-03-21T09:12:18;0.40;;;0.40;;
9280;SDS011;4679;47.966;7.958;2023-03-21T09:14:20;0.50;;;0.50;;
9280;SDS011;4679;47.966;7.958;2023-03-21T09:16:21;1.33;;;0.53;;
9280;SDS011;4679;47.966;7.958;2023-03-21T09:18:24;0.50;;;0.50;;
9280;SDS011;4679;47.966;7.958;2023-03-21T09:20:45;0.73;;;0.50;;
9280;SDS011;4679;47.966;7.958;2023-03-21T09:22:48;0.50;;;0.50;;
9280;SDS011;4679;47.966;7.958;2023-03-21T09:24:52;0.83;;;0.53;;
9280;SDS011;4679;47.966;7.958;2023-03-21T09:26:54;0.73;;;0.60;;
9280;SDS011;4679;47.966;7.958;2023-03-21T09:28:56;1.10;;;0.50;;
9280;SDS011;4679;47.966;7.958;2023-03-21T09:30:59;0.90;;;0.63;;
9280;SDS011;4679;47.966;7.958;2023-03-21T09:33:02;0.50;;;0.50;;
9280;SDS011;4679;47.966;7.958;2023-03-21T09:35:05;4.20;;;0.80;;
9280;SDS011;4679;47.966;7.958;2023-03-21T09:37:08;0.80;;;0.60;;
9280;SDS011;4679;47.966;7.958;2023-03-21T09:39:12;1.37;;;0.63;;
9280;SDS011;4679;47.966;7.958;2023-03-21T09:41:19;2.17;;;0.70;;
9280;SDS011;4679;47.966;7.958;2023-03-21T09:43:40;0.60;;;0.60;;
9280;SDS011;4679;47.966;7.958;2023-03-21T09:45:53;2.53;;;0.87;;
9280;SDS011;4679;47.966;7.958;2023-03-21T09:47:58;0.50;;;0.40;;
9280;SDS011;4679;47.966;7.958;2023-03-21T09:50:03;0.40;;;0.40;;
9280;SDS011;4679;47.966;7.958;2023-03-21T09:52:09;1.70;;;0.60;;
9280;SDS011;4679;47.966;7.958;2023-03-21T09:54:19;1.43;;;0.50;;
9280;SDS011;4679;47.966;7.958;2023-03-21T09:56:25;0.80;;;0.47;;
9280;SDS011;4679;47.966;7.958;2023-03-21T09:58:27;1.00;;;0.60;;
9280;SDS011;4679;47.966;7.958;2023-03-21T10:00:36;1.23;;;0.60;;
9280;SDS011;4679;47.966;7.958;2023-03-21T10:02:41;0.50;;;0.50;;
9280;SDS011;4679;47.966;7.958;2023-03-21T10:04:46;1.40;;;0.30;;
9280;SDS011;4679;47.966;7.958;2023-03-21T10:06:50;0.70;;;0.50;;
9280;SDS011;4679;47.966;7.958;2023-03-21T10:08:58;2.77;;;0.57;;
9280;SDS011;4679;47.966;7.958;2023-03-21T10:11:08;0.70;;;0.53;;
9280;SDS011;4679;47.966;7.958;2023-03-21T10:13:14;0.67;;;0.50;;
9280;SDS011;4679;47.966;7.958;2023-03-21T10:15:20;0.77;;;0.50;;
9280;SDS011;4679;47.966;7.958;2023-03-21T10:17:24;1.33;;;0.50;;
9280;SDS011;4679;47.966;7.958;2023-03-21T10:19:29;0.63;;;0.63;;
9280;SDS011;4679;47.966;7.958;2023-03-21T10:21:30;0.83;;;0.60;;
9280;SDS011;4679;47.966;7.958;2023-03-21T10:23:32;1.30;;;0.70;;
9280;SDS011;4679;47.966;7.958;2023-03-21T10:25:35;0.60;;;0.60;;
9280;SDS011;4679;47.966;7.958;2023-03-21T10:27:40;0.50;;;0.50;;
9280;SDS011;4679;47.966;7.958;2023-03-21T10:29:43;1.33;;;0.50;;
9280;SDS011;4679;47.966;7.958;2023-03-21T10:31:46;2.97;;;0.70;;
9280;SDS011;4679;47.966;7.958;2023-03-21T10:33:49;0.70;;;0.50;;
9280;SDS011;4679;47.966;7.958;2023-03-21T10:35:52;1.63;;;0.40;;
9280;SDS011;4679;47.966;7.958;2023-03-21T10:37:56;1.07;;;0.50;;
9280;SDS011;4679;47.966;7.958;2023-03-21T10:39:58;1.50;;;0.60;;
9280;SDS011;4679;47.966;7.958;2023-03-21T10:42:00;0.50;;;0.50;;
9280;SDS011;4679;47.966;7.958;2023-03-21T10:44:03;0.70;;;0.53;;
9280;SDS011;4679;47.966;7.958;2023-03-21T10:46:10;0.47;;;0.40;;
9280;SDS011;4679;47.966;7.958;2023-03-21T10:48:13;2.43;;;0.50;;
9280;SDS011;4679;47.966;7.958;2023-03-21T10:50:16;1.43;;;0.60;;
9280;SDS011;4679;47.966;7.958;2023-03-21T10:52:26;0.30;;;0.30;;
9280;SDS011;4679;47.966;7.958;2023-03-21T10:54:30;1.37;;;0.47;;
9280;SDS011;4679;47.966;7.958;2023-03-21T10:56:34;0.57;;;0.30;;
9280;SDS011;4679;47.966;7.958;2023-03-21T10:58:39;0.20;;;0.20;;
9280;SDS011;4679;47.966;7.958;2023-03-21T11:00:44;1.17;;;0.40;;
9280;SDS011;4679;47.966;7.958;2023-03-21T11:02:49;2.00;;;0.30;;
9280;SDS011;4679;47.966;7.958;2023-03-21T11:04:53;0.83;;;0.40;;
9280;SDS011;4679;47.966;7.958;2023-03-21T11:06:57;1.27;;;0.50;;
9280;SDS011;4679;47.966;7.958;2023-03-21T11:09:04;1.00;;;0.40;;
9280;SDS011;4679;47.966;7.958;2023-03-21T11:11:08;1.50;;;0.60;;
9280;SDS011;4679;47.966;7.958;2023-03-21T11:13:16;0.60;;;0.60;;
9280;SDS011;4679;47.966;7.958;2023-03-21T11:15:27;0.60;;;0.53;;
9280;SDS011;4679;47.966;7.958;2023-03-21T11:17:30;0.50;;;0.50;;
9280;SDS011;4679;47.966;7.958;2023-03-21T11:19:36;0.63;;;0.50;;
9280;SDS011;4679;47.966;7.958;2023-03-21T11:21:38;1.53;;;0.40;;
9280;SDS011;4679;47.966;7.958;2023-03-21T11:23:41;0.60;;;0.50;;
9280;SDS011;4679;47.966;7.958;2023-03-21T11:25:46;0.50;;;0.50;;
9280;SDS011;4679;47.966;7.958;2023-03-21T11:27:50;1.00;;;0.70;;
9280;SDS011;4679;47.966;7.958;2023-03-21T11:29:54;0.60;;;0.60;;
9280;SDS011;4679;47.966;7.958;2023-03-21T11:31:58;2.33;;;0.60;;
9280;SDS011;4679;47.966;7.958;2023-03-21T11:34:01;0.70;;;0.70;;
9280;SDS011;4679;47.966;7.958;2023-03-21T11:36:24;1.50;;;0.70;;
9280;SDS011;4679;47.966;7.958;2023-03-21T11:38:35;0.83;;;0.57;;
9280;SDS011;4679;47.966;7.958;2023-03-21T11:40:38;1.30;;;0.70;;
9280;SDS011;4679;47.966;7.958;2023-03-21T11:42:54;1.57;;;0.73;;
9280;SDS011;4679;47.966;7.958;2023-03-21T11:45:02;1.20;;;0.80;;
9280;SDS011;4679;47.966;7.958;2023-03-21T11:47:10;1.10;;;0.90;;
9280;SDS011;4679;47.966;7.958;2023-03-21T11:49:12;1.77;;;0.70;;
9280;SDS011;4679;47.966;7.958;2023-03-21T11:51:18;3.03;;;0.83;;
9280;SDS011;4679;47.966;7.958;2023-03-21T11:53:30;0.93;;;0.83;;
9280;SDS011;4679;47.966;7.958;2023-03-21T11:55:40;0.83;;;0.70;;
9280;SDS011;4679;47.966;7.958;2023-03-21T11:57:49;0.70;;;0.70;;
9280;SDS011;4679;47.966;7.958;2023-03-21T12:00:03;2.67;;;0.80;;
9280;SDS011;4679;47.966;7.958;2023-03-21T12:02:25;1.03;;;1.00;;
9280;SDS011;4679;47.966;7.958;2023-03-21T12:04:45;1.30;;;1.20;;
9280;SDS011;4679;47.966;7.958;2023-03-21T12:06:55;2.03;;;1.10;;
9280;SDS011;4679;47.966;7.958;2023-03-21T12:09:05;1.30;;;0.70;;
9280;SDS011;4679;47.966;7.958;2023-03-21T12:11:16;0.80;;;0.80;;
9280;SDS011;4679;47.966;7.958;2023-03-21T12:13:28;0.90;;;0.80;;
9280;SDS011;4679;47.966;7.958;2023-03-21T12:15:40;0.90;;;0.90;;
9280;SDS011;4679;47.966;7.958;2023-03-21T12:17:53;0.80;;;0.80;;
9280;SDS011;4679;47.966;7.958;2023-03-21T12:20:08;1.00;;;0.90;;
9280;SDS011;4679;47.966;7.958;2023-03-21T12:22:20;0.90;;;0.90;;
9280;SDS011;4679;47.966;7.958;2023-03-21T12:24:35;0.87;;;0.87;;
9280;SDS011;4679;47.966;7.958;2023-03-21T12:26:44;2.80;;;0.90;;
9280;SDS011;4679;47.966;7.958;2023-03-21T12:28:59;1.03;;;1.00;;
9280;SDS011;4679;47.966;7.958;2023-03-21T12:31:12;2.70;;;1.50;;
9280;SDS011;4679;47.966;7.958;2023-03-21T12:33:23;1.43;;;0.90;;
9280;SDS011;4679;47.966;7.958;2023-03-21T12:35:41;2.60;;;1.13;;
9280;SDS011;4679;47.966;7.958;2023-03-21T12:37:56;0.60;;;0.60;;
9280;SDS011;4679;47.966;7.958;2023-03-21T12:40:08;1.30;;;0.80;;
9280;SDS011;4679;47.966;7.958;2023-03-21T12:42:26;1.57;;;0.70;;
9280;SDS011;4679;47.966;7.958;2023-03-21T12:44:43;0.97;;;0.80;;
9280;SDS011;4679;47.966;7.958;2023-03-21T12:46:49;0.90;;;0.90;;
9280;SDS011;4679;47.966;7.958;2023-03-21T12:48:57;1.83;;;0.80;;
9280;SDS011;4679;47.966;7.958;2023-03-21T12:51:03;1.17;;;0.90;;
9280;SDS011;4679;47.966;7.958;2023-03-21T12:53:16;1.17;;;0.60;;
9280;SDS011;4679;47.966;7.958;2023-03-21T12:55:30;0.70;;;0.70;;
9280;SDS011;4679;47.966;7.958;2023-03-21T12:57:34;2.20;;;0.90;;
9280;SDS011;4679;47.966;7.958;2023-03-21T12:59:41;0.63;;;0.63;;
9280;SDS011;4679;47.966;7.958;2023-03-21T13:01:51;0.63;;;0.63;;
9280;SDS011;4679;47.966;7.958;2023-03-21T13:04:01;3.17;;;0.70;;
9280;SDS011;4679;47.966;7.958;2023-03-21T13:06:10;1.87;;;0.70;;
9280;SDS011;4679;47.966;7.958;2023-03-21T13:08:16;0.93;;;0.70;;
9280;SDS011;4679;47.966;7.958;2023-03-21T13:10:24;3.27;;;0.60;;
9280;SDS011;4679;47.966;7.958;2023-03-21T13:12:33;1.10;;;0.60;;
9280;SDS011;4679;47.966;7.958;2023-03-21T13:14:45;0.60;;;0.60;;
9280;SDS011;4679;47.966;7.958;2023-03-21T13:17:05;0.40;;;0.40;;
9280;SDS011;4679;47.966;7.958;2023-03-21T13:19:17;2.90;;;0.40;;
9280;SDS011;4679;47.966;7.958;2023-03-21T13:21:27;1.07;;;0.40;;
9280;SDS011;4679;47.966;7.958;2023-03-21T13:23:45;0.40;;;0.30;;
9280;SDS011;4679;47.966;7.958;2023-03-21T13:25:58;2.73;;;0.37;;
9280;SDS011;4679;47.966;7.958;2023-03-21T13:28:01;0.23;;;0.23;;
9280;SDS011;4679;47.966;7.958;2023-03-21T13:30:05;0.30;;;0.30;;
9280;SDS011;4679;47.966;7.958;2023-03-21T13:32:22;0.20;;;0.17;;
9280;SDS011;4679;47.966;7.958;2023-03-21T13:34:29;0.30;;;0.20;;
9280;SDS011;4679;47.966;7.958;2023-03-21T13:36:31;0.63;;;0.20;;
9280;SDS011;4679;47.966;7.958;2023-03-21T13:38:37;1.03;;;0.20;;
9280;SDS011;4679;47.966;7.958;2023-03-21T13:40:42;0.10;;;0.10;;
9280;SDS011;4679;47.966;7.958;2023-03-21T13:42:49;0.10;;;0.10;;
9280;SDS011;4679;47.966;7.958;2023-03-21T13:44:54;0.83;;;0.10;;
9280;SDS011;4679;47.966;7.958;2023-03-21T13:46:59;1.03;;;0.10;;
9280;SDS011;4679;47.966;7.958;2023-03-21T13:49:12;0.50;;;0.10;;
9280;SDS011;4679;47.966;7.958;2023-03-21T13:51:41;0.40;;;0.40;;
9280;SDS011;4679;47.966;7.958;2023-03-21T13:53:46;0.13;;;0.10;;
9280;SDS011;4679;47.966;7.958;2023-03-21T13:56:08;2.47;;;0.10;;
9280;SDS011;4679;47.966;7.958;2023-03-21T13:58:22;0.30;;;0.13;;
9280;SDS011;4679;47.966;7.958;2023-03-21T14:00:34;0.13;;;0.13;;
9280;SDS011;4679;47.966;7.958;2023-03-21T14:02:45;1.90;;;0.20;;
9280;SDS011;4679;47.966;7.958;2023-03-21T14:04:54;0.53;;;0.20;;
9280;SDS011;4679;47.966;7.958;2023-03-21T14:07:00;0.30;;;0.10;;
9280;SDS011;4679;47.966;7.958;2023-03-21T14:09:05;0.20;;;0.10;;
9280;SDS011;4679;47.966;7.958;2023-03-21T14:11:09;0.37;;;0.10;;
9280;SDS011;4679;47.966;7.958;2023-03-21T14:13:15;0.40;;;0.10;;
9280;SDS011;4679;47.966;7.958;2023-03-21T14:15:19;0.57;;;0.37;;
9280;SDS011;4679;47.966;7.958;2023-03-21T14:17:24;0.37;;;0.30;;
9280;SDS011;4679;47.966;7.958;2023-03-21T14:19:27;1.90;;;0.30;;
9280;SDS011;4679;47.966;7.958;2023-03-21T14:21:31;0.20;;;0.20;;
9280;SDS011;4679;47.966;7.958;2023-03-21T14:23:36;0.20;;;0.20;;
9280;SDS011;4679;47.966;7.958;2023-03-21T14:25:39;0.40;;;0.40;;
9280;SDS011;4679;47.966;7.958;2023-03-21T14:27:44;0.77;;;0.77;;
9280;SDS011;4679;47.966;7.958;2023-03-21T14:29:51;0.20;;;0.20;;
9280;SDS011;4679;47.966;7.958;2023-03-21T14:31:53;0.70;;;0.27;;
9280;SDS011;4679;47.966;7.958;2023-03-21T14:33:56;0.30;;;0.30;;
9280;SDS011;4679;47.966;7.958;2023-03-21T14:36:02;0.33;;;0.20;;
9280;SDS011;4679;47.966;7.958;2023-03-21T14:38:08;0.50;;;0.30;;
9280;SDS011;4679;47.966;7.958;2023-03-21T14:40:20;0.57;;;0.50;;
9280;SDS011;4679;47.966;7.958;2023-03-21T14:42:24;0.53;;;0.50;;
9280;SDS011;4679;47.966;7.958;2023-03-21T14:44:31;0.27;;;0.20;;
9280;SDS011;4679;47.966;7.958;2023-03-21T14:46:34;1.10;;;0.20;;
9280;SDS011;4679;47.966;7.958;2023-03-21T14:48:36;0.20;;;0.20;;
9280;SDS011;4679;47.966;7.958;2023-03-21T14:50:38;1.33;;;0.20;;
9280;SDS011;4679;47.966;7.958;2023-03-21T14:52:44;0.23;;;0.23;;
9280;SDS011;4679;47.966;7.958;2023-03-21T14:54:46;0.30;;;0.30;;
9280;SDS011;4679;47.966;7.958;2023-03-21T14:56:50;0.20;;;0.20;;
9280;SDS011;4679;47.966;7.958;2023-03-21T14:58:53;0.37;;;0.30;;
9280;SDS011;4679;47.966;7.958;2023-03-21T15:00:59;0.57;;;0.40;;
9280;SDS011;4679;47.966;7.958;2023-03-21T15:03:03;0.30;;;0.30;;
9280;SDS011;4679;47.966;7.958;2023-03-21T15:05:06;0.63;;;0.30;;
9280;SDS011;4679;47.966;7.958;2023-03-21T15:07:22;0.30;;;0.30;;
9280;SDS011;4679;47.966;7.958;2023-03-21T15:09:26;0.57;;;0.30;;
9280;SDS011;4679;47.966;7.958;2023-03-21T15:11:30;0.30;;;0.30;;
9280;SDS011;4679;47.966;7.958;2023-03-21T15:13:35;0.60;;;0.60;;
9280;SDS011;4679;47.966;7.958;2023-03-21T15:15:40;1.07;;;0.57;;
9280;SDS011;4679;47.966;7.958;2023-03-21T15:17:43;0.50;;;0.33;;
9280;SDS011;4679;47.966;7.958;2023-03-21T15:19:46;1.10;;;0.60;;
9280;SDS011;4679;47.966;7.958;2023-03-21T15:21:48;1.60;;;0.40;;
9280;SDS011;4679;47.966;7.958;2023-03-21T15:23:55;0.40;;;0.40;;
9280;SDS011;4679;47.966;7.958;2023-03-21T15:26:03;0.30;;;0.30;;
9280;SDS011;4679;47.966;7.958;2023-03-21T15:28:06;0.50;;;0.40;;
9280;SDS011;4679;47.966;7.958;2023-03-21T15:30:14;0.60;;;0.40;;
9280;SDS011;4679;47.966;7.958;2023-03-21T15:32:21;0.33;;;0.33;;
9280;SDS011;4679;47.966;7.958;2023-03-21T15:34:27;0.40;;;0.40;;
9280;SDS011;4679;47.966;7.958;2023-03-21T15:36:31;1.63;;;0.40;;
9280;SDS011;4679;47.966;7.958;2023-03-21T15:38:37;0.80;;;0.40;;
9280;SDS011;4679;47.966;7.958;2023-03-21T15:40:40;1.90;;;0.33;;
9280;SDS011;4679;47.966;7.958;2023-03-21T15:42:42;2.83;;;0.37;;
9280;SDS011;4679;47.966;7.958;2023-03-21T15:44:44;0.40;;;0.40;;
9280;SDS011;4679;47.966;7.958;2023-03-21T15:46:51;0.63;;;0.30;;
9280;SDS011;4679;47.966;7.958;2023-03-21T15:49:05;0.60;;;0.50;;
9280;SDS011;4679;47.966;7.958;2023-03-21T15:51:12;0.30;;;0.30;;
9280;SDS011;4679;47.966;7.958;2023-03-21T15:53:20;0.33;;;0.30;;
9280;SDS011;4679;47.966;7.958;2023-03-21T15:55:26;2.70;;;0.47;;
9280;SDS011;4679;47.966;7.958;2023-03-21T15:57:34;2.03;;;0.50;;
9280;SDS011;4679;47.966;7.958;2023-03-21T15:59:38;1.90;;;0.50;;
9280;SDS011;4679;47.966;7.958;2023-03-21T16:01:43;1.30;;;0.40;;
9280;SDS011;4679;47.966;7.958;2023-03-21T16:03:47;0.50;;;0.33;;
9280;SDS011;4679;47.966;7.958;2023-03-21T16:06:02;0.43;;;0.33;;
9280;SDS011;4679;47.966;7.958;2023-03-21T16:08:17;1.97;;;0.60;;
9280;SDS011;4679;47.966;7.958;2023-03-21T16:10:25;0.63;;;0.63;;
9280;SDS011;4679;47.966;7.958;2023-03-21T16:12:28;1.00;;;0.50;;
9280;SDS011;4679;47.966;7.958;2023-03-21T16:14:30;1.37;;;0.70;;
9280;SDS011;4679;47.966;7.958;2023-03-21T16:16:31;3.53;;;0.60;;
9280;SDS011;4679;47.966;7.958;2023-03-21T16:18:33;1.97;;;0.50;;
9280;SDS011;4679;47.966;7.958;2023-03-21T16:20:37;1.53;;;0.50;;
9280;SDS011;4679;47.966;7.958;2023-03-21T16:22:40;1.93;;;0.67;;
9280;SDS011;4679;47.966;7.958;2023-03-21T16:24:43;0.80;;;0.80;;
9280;SDS011;4679;47.966;7.958;2023-03-21T16:26:46;1.97;;;1.00;;
9280;SDS011;4679;47.966;7.958;2023-03-21T16:28:50;0.70;;;0.70;;
9280;SDS011;4679;47.966;7.958;2023-03-21T16:30:52;1.90;;;0.70;;
9280;SDS011;4679;47.966;7.958;2023-03-21T16:32:54;2.00;;;0.30;;
9280;SDS011;4679;47.966;7.958;2023-03-21T16:34:56;0.50;;;0.40;;
9280;SDS011;4679;47.966;7.958;2023-03-21T16:36:58;0.50;;;0.50;;
9280;SDS011;4679;47.966;7.958;2023-03-21T16:39:00;0.83;;;0.50;;
9280;SDS011;4679;47.966;7.958;2023-03-21T16:41:04;1.10;;;0.70;;
9280;SDS011;4679;47.966;7.958;2023-03-21T16:43:09;0.53;;;0.53;;
9280;SDS011;4679;47.966;7.958;2023-03-21T16:45:11;0.67;;;0.57;;
9280;SDS011;4679;47.966;7.958;2023-03-21T16:47:13;0.43;;;0.43;;
9280;SDS011;4679;47.966;7.958;2023-03-21T16:49:17;0.83;;;0.60;;
9280;SDS011;4679;47.966;7.958;2023-03-21T16:51:21;0.30;;;0.30;;
9280;SDS011;4679;47.966;7.958;2023-03-21T16:53:26;1.43;;;0.33;;
9280;SDS011;4679;47.966;7.958;2023-03-21T16:55:28;0.50;;;0.20;;
9280;SDS011;4679;47.966;7.958;2023-03-21T16:57:33;0.30;;;0.30;;
9280;SDS011;4679;47.966;7.958;2023-03-21T16:59:35;0.30;;;0.30;;
9280;SDS011;4679;47.966;7.958;2023-03-21T17:01:39;0.33;;;0.33;;
9280;SDS011;4679;47.966;7.958;2023-03-21T17:03:41;0.40;;;0.40;;
9280;SDS011;4679;47.966;7.958;2023-03-21T17:05:43;0.67;;;0.50;;
9280;SDS011;4679;47.966;7.958;2023-03-21T17:07:45;1.27;;;0.50;;
9280;SDS011;4679;47.966;7.958;2023-03-21T17:09:47;1.17;;;0.50;;
9280;SDS011;4679;47.966;7.958;2023-03-21T17:11:49;0.20;;;0.20;;
9280;SDS011;4679;47.966;7.958;2023-03-21T17:13:53;1.43;;;0.40;;
9280;SDS011;4679;47.966;7.958;2023-03-21T17:15:55;0.30;;;0.30;;
9280;SDS011;4679;47.966;7.958;2023-03-21T17:17:57;0.90;;;0.30;;
9280;SDS011;4679;47.966;7.958;2023-03-21T17:19:59;0.60;;;0.60;;
9280;SDS011;4679;47.966;7.958;2023-03-21T17:22:00;0.40;;;0.40;;
9280;SDS011;4679;47.966;7.958;2023-03-21T17:24:02;0.30;;;0.30;;
9280;SDS011;4679;47.966;7.958;2023-03-21T17:26:04;0.40;;;0.40;;
9280;SDS011;4679;47.966;7.958;2023-03-21T17:28:08;0.97;;;0.50;;
9280;SDS011;4679;47.966;7.958;2023-03-21T17:30:15;0.63;;;0.50;;
9280;SDS011;4679;47.966;7.958;2023-03-21T17:32:21;2.50;;;0.40;;
9280;SDS011;4679;47.966;7.958;2023-03-21T17:34:23;0.50;;;0.40;;
9280;SDS011;4679;47.966;7.958;2023-03-21T17:36:27;0.83;;;0.50;;
9280;SDS011;4679;47.966;7.958;2023-03-21T17:38:32;0.33;;;0.30;;
9280;SDS011;4679;47.966;7.958;2023-03-21T17:40:33;0.20;;;0.20;;
9280;SDS011;4679;47.966;7.958;2023-03-21T17:42:35;0.20;;;0.20;;
9280;SDS011;4679;47.966;7.958;2023-03-21T17:44:36;0.63;;;0.27;;
9280;SDS011;4679;47.966;7.958;2023-03-21T17:46:39;2.87;;;0.80;;
9280;SDS011;4679;47.966;7.958;2023-03-21T17:48:42;1.17;;;0.60;;
9280;SDS011;4679;47.966;7.958;2023-03-21T17:50:45;0.40;;;0.40;;
9280;SDS011;4679;47.966;7.958;2023-03-21T17:52:47;1.37;;;0.40;;
9280;SDS011;4679;47.966;7.958;2023-03-21T17:54:49;0.40;;;0.30;;
9280;SDS011;4679;47.966;7.958;2023-03-21T17:56:51;0.40;;;0.40;;
9280;SDS011;4679;47.966;7.958;2023-03-21T17:58:55;1.07;;;0.23;;
9280;SDS011;4679;47.966;7.958;2023-03-21T18:00:57;0.40;;;0.40;;
9280;SDS011;4679;47.966;7.958;2023-03-21T18:03:00;0.40;;;0.40;;
9280;SDS011;4679;47.966;7.958;2023-03-21T18:05:02;0.70;;;0.70;;
9280;SDS011;4679;47.966;7.958;2023-03-21T18:07:04;0.40;;;0.40;;
9280;SDS011;4679;47.966;7.958;2023-03-21T18:09:06;0.60;;;0.40;;
9280;SDS011;4679;47.966;7.958;2023-03-21T18:11:10;0.93;;;0.40;;
9280;SDS011;4679;47.966;7.958;2023-03-21T18:13:12;0.40;;;0.40;;
9280;SDS011;4679;47.966;7.958;2023-03-21T18:15:14;0.30;;;0.30;;
9280;SDS011;4679;47.966;7.958;2023-03-21T18:17:16;0.60;;;0.60;;
9280;SDS011;4679;47.966;7.958;2023-03-21T18:19:19;0.77;;;0.50;;
9280;SDS011;4679;47.966;7.958;2023-03-21T18:21:21;5.63;;;1.33;;
9280;SDS011;4679;47.966;7.958;2023-03-21T18:23:24;0.40;;;0.40;;
9280;SDS011;4679;47.966;7.958;2023-03-21T18:25:26;0.40;;;0.37;;
9280;SDS011;4679;47.966;7.958;2023-03-21T18:27:28;0.60;;;0.60;;
9280;SDS011;4679;47.966;7.958;2023-03-21T18:29:30;0.60;;;0.50;;
9280;SDS011;4679;47.966;7.958;2023-03-21T18:31:32;0.80;;;0.60;;
9280;SDS011;4679;47.966;7.958;2023-03-21T18:33:33;0.40;;;0.40;;
9280;SDS011;4679;47.966;7.958;2023-03-21T18:35:37;0.60;;;0.53;;
9280;SDS011;4679;47.966;7.958;2023-03-21T18:37:39;0.47;;;0.40;;
9280;SDS011;4679;47.966;7.958;2023-03-21T18:39:41;0.50;;;0.50;;
9280;SDS011;4679;47.966;7.958;2023-03-21T18:41:44;1.27;;;0.50;;
9280;SDS011;4679;47.966;7.958;2023-03-21T18:43:46;0.60;;;0.47;;
9280;SDS011;4679;47.966;7.958;2023-03-21T18:45:47;0.77;;;0.60;;
9280;SDS011;4679;47.966;7.958;2023-03-21T18:47:49;0.50;;;0.50;;
9280;SDS011;4679;47.966;7.958;2023-03-21T18:49:51;0.70;;;0.70;;
9280;SDS011;4679;47.966;7.958;2023-03-21T18:51:54;0.73;;;0.50;;
9280;SDS011;4679;47.966;7.958;2023-03-21T18:53:56;0.77;;;0.60;;
9280;SDS011;4679;47.966;7.958;2023-03-21T18:56:00;0.70;;;0.60;;
9280;SDS011;4679;47.966;7.958;2023-03-21T18:58:02;2.20;;;0.60;;
9280;SDS011;4679;47.966;7.958;2023-03-21T19:00:04;1.47;;;0.60;;
9280;SDS011;4679;47.966;7.958;2023-03-21T19:02:13;1.60;;;0.43;;
9280;SDS011;4679;47.966;7.958;2023-03-21T19:04:15;0.93;;;0.43;;
9280;SDS011;4679;47.966;7.958;2023-03-21T19:06:18;0.87;;;0.53;;
9280;SDS011;4679;47.966;7.958;2023-03-21T19:08:21;1.83;;;1.40;;
9280;SDS011;4679;47.966;7.958;2023-03-21T19:10:23;0.90;;;0.80;;
9280;SDS011;4679;47.966;7.958;2023-03-21T19:12:25;0.77;;;0.70;;
9280;SDS011;4679;47.966;7.958;2023-03-21T19:14:27;1.13;;;0.83;;
9280;SDS011;4679;47.966;7.958;2023-03-21T19:16:29;1.10;;;0.97;;
9280;SDS011;4679;47.966;7.958;2023-03-21T19:18:31;1.00;;;0.90;;
9280;SDS011;4679;47.966;7.958;2023-03-21T19:20:33;1.27;;;0.83;;
9280;SDS011;4679;47.966;7.958;2023-03-21T19:22:35;1.40;;;0.57;;
9280;SDS011;4679;47.966;7.958;2023-03-21T19:24:38;0.80;;;0.60;;
9280;SDS011;4679;47.966;7.958;2023-03-21T19:26:40;1.97;;;0.50;;
9280;SDS011;4679;47.966;7.958;2023-03-21T19:28:42;3.47;;;0.67;;
9280;SDS011;4679;47.966;7.958;2023-03-21T19:30:45;1.03;;;0.60;;
9280;SDS011;4679;47.966;7.958;2023-03-21T19:32:46;0.50;;;0.50;;
9280;SDS011;4679;47.966;7.958;2023-03-21T19:34:48;0.40;;;0.40;;
9280;SDS011;4679;47.966;7.958;2023-03-21T19:36:50;2.10;;;0.57;;
9280;SDS011;4679;47.966;7.958;2023-03-21T19:38:52;0.60;;;0.30;;
9280;SDS011;4679;47.966;7.958;2023-03-21T19:40:58;0.83;;;0.40;;
9280;SDS011;4679;47.966;7.958;2023-03-21T19:43:00;1.47;;;0.40;;
9280;SDS011;4679;47.966;7.958;2023-03-21T19:45:02;1.23;;;0.27;;